createdAt,value
2023-05-02T00:01:08.267Z,95376.59
2023-05-02T00:04:51.093Z,95372.56
2023-05-02T00:08:33.933Z,95377.03
2023-05-02T00:12:16.584Z,95367.69
2023-05-02T00:15:59.403Z,95369.50
2023-05-02T00:19:43.479Z,95369.72
2023-05-02T00:23:26.109Z,95369.09
2023-05-02T00:27:08.746Z,95369.28
2023-05-02T00:30:54.364Z,95375.34
2023-05-02T00:34:37.048Z,95365.25
2023-05-02T00:38:21.279Z,95368.06
2023-05-02T00:42:06.594Z,95367.66
2023-05-02T00:45:52.498Z,95367.66
2023-05-02T00:49:35.191Z,95366.03
2023-05-02T00:53:18.154Z,95373.28
2023-05-02T00:57:02.958Z,95364.19
2023-05-02T01:00:56.616Z,95371.63
2023-05-02T01:04:45.404Z,95367.78
2023-05-02T01:08:35.867Z,95380.09
2023-05-02T01:12:27.244Z,95368.97
2023-05-02T01:16:13.255Z,95370.59
2023-05-02T01:19:58.739Z,95365.97
2023-05-02T01:23:47.685Z,95371.59
2023-05-02T01:27:47.871Z,95370.78
2023-05-02T01:31:35.835Z,95372.78
2023-05-02T01:35:19.714Z,95373.97
2023-05-02T01:39:04.086Z,95377.97
2023-05-02T01:42:48.873Z,95377.97
2023-05-02T01:46:36.241Z,95374.75
2023-05-02T01:50:24.862Z,95385.00
2023-05-02T01:54:09.661Z,95374.50
2023-05-02T01:57:54.450Z,95381.53
2023-05-02T02:01:40.338Z,95387.13
2023-05-02T02:05:23.808Z,95395.19
2023-05-02T02:09:06.726Z,95400.00
2023-05-02T02:12:53.432Z,95400.81
2023-05-02T02:16:40.621Z,95393.72
2023-05-02T02:20:23.369Z,95398.78
2023-05-02T02:24:09.472Z,95404.06
2023-05-02T02:27:52.735Z,95408.69
2023-05-02T02:31:36.484Z,95400.81
2023-05-02T02:35:20.968Z,95405.69
2023-05-02T02:39:14.173Z,95414.13
2023-05-02T02:43:05.204Z,95410.94
2023-05-02T02:46:50.554Z,95406.06
2023-05-02T02:50:39.601Z,95413.56
2023-05-02T02:54:28.082Z,95416.56
2023-05-02T02:58:21.794Z,95416.94
2023-05-02T03:02:08.325Z,95419.94
2023-05-02T03:05:52.934Z,95420.56
2023-05-02T03:09:42.545Z,95426.81
2023-05-02T03:13:25.420Z,95434.28
2023-05-02T03:17:08.570Z,95435.09
2023-05-02T03:20:52.725Z,95431.06
2023-05-02T03:24:38.387Z,95442.97
2023-05-02T03:28:21.059Z,95433.88
2023-05-02T03:32:03.831Z,95433.44
2023-05-02T03:35:46.619Z,95439.88
2023-05-02T03:39:30.770Z,95442.69
2023-05-02T03:43:13.668Z,95443.88
2023-05-02T03:46:56.426Z,95438.19
2023-05-02T03:50:39.130Z,95444.59
2023-05-02T03:54:21.762Z,95445.06
2023-05-02T03:58:05.826Z,95461.16
2023-05-02T04:01:50.370Z,95456.66
2023-05-02T04:05:33.200Z,95462.28
2023-05-02T04:09:15.911Z,95461.84
2023-05-02T04:12:58.587Z,95477.56
2023-05-02T04:16:42.641Z,95482.00
2023-05-02T04:20:25.309Z,95477.94
2023-05-02T04:24:07.966Z,95482.38
2023-05-02T04:27:50.699Z,95483.00
2023-05-02T04:31:33.668Z,95488.59
2023-05-02T04:35:17.840Z,95494.47
2023-05-02T04:39:00.650Z,95488.84
2023-05-02T04:42:43.288Z,95499.34
2023-05-02T04:46:26.293Z,95502.22
2023-05-02T04:50:10.252Z,95508.63
2023-05-02T04:53:56.986Z,95509.00
2023-05-02T04:57:39.942Z,95517.31
2023-05-02T05:01:24.139Z,95533.28
2023-05-02T05:05:07.373Z,95534.91
2023-05-02T05:08:50.113Z,95536.91
2023-05-02T05:12:34.329Z,95540.31
2023-05-02T05:16:18.110Z,95535.19
2023-05-02T05:20:01.154Z,95544.13
2023-05-02T05:23:46.195Z,95545.63
2023-05-02T05:27:28.986Z,95559.56
2023-05-02T05:31:16.905Z,95559.56
2023-05-02T05:34:59.707Z,95561.19
2023-05-02T05:38:46.309Z,95563.06
2023-05-02T05:42:29.035Z,95571.28
2023-05-02T05:46:13.103Z,95576.16
2023-05-02T05:49:56.058Z,95571.78
2023-05-02T05:53:38.745Z,95583.16
2023-05-02T05:57:21.514Z,95592.91
2023-05-02T06:01:04.282Z,95588.16
2023-05-02T06:04:48.498Z,95588.38
2023-05-02T06:08:31.416Z,95593.41
2023-05-02T06:12:16.362Z,95593.84
2023-05-02T06:16:02.040Z,95608.00
2023-05-02T06:19:44.801Z,95604.00
2023-05-02T06:23:28.903Z,95610.97
2023-05-02T06:27:11.574Z,95610.59
2023-05-02T06:30:59.054Z,95618.41
2023-05-02T06:34:41.852Z,95620.81
2023-05-02T06:38:24.664Z,95615.19
2023-05-02T06:42:08.688Z,95622.50
2023-05-02T06:45:54.292Z,95637.09
2023-05-02T06:49:36.994Z,95635.91
2023-05-02T06:53:22.633Z,95638.75
2023-05-02T06:57:05.366Z,95653.41
2023-05-02T07:00:50.437Z,95653.22
2023-05-02T07:04:33.248Z,95661.75
2023-05-02T07:08:15.945Z,95655.59
2023-05-02T07:11:58.620Z,95652.56
2023-05-02T07:15:41.302Z,95637.84
2023-05-02T07:19:25.977Z,95646.38
2023-05-02T07:23:09.020Z,95646.00
2023-05-02T07:26:51.760Z,95656.56
2023-05-02T07:30:34.411Z,95652.97
2023-05-02T07:34:17.346Z,95654.19
2023-05-02T07:38:01.446Z,95657.88
2023-05-02T07:41:44.290Z,95659.13
2023-05-02T07:45:26.968Z,95658.72
2023-05-02T07:49:09.639Z,95653.66
2023-05-02T07:52:52.319Z,95656.28
2023-05-02T07:56:36.561Z,95668.44
2023-05-02T08:00:20.003Z,95672.16
2023-05-02T08:04:03.129Z,95675.00
2023-05-02T08:07:46.520Z,95676.59
2023-05-02T08:11:29.212Z,95672.56
2023-05-02T08:15:14.500Z,95683.69
2023-05-02T08:18:57.124Z,95680.69
2023-05-02T08:22:39.769Z,95690.03
2023-05-02T08:26:22.475Z,95688.78
2023-05-02T08:30:06.684Z,95683.72
2023-05-02T08:33:51.155Z,95688.81
2023-05-02T08:37:33.936Z,95684.53
2023-05-02T08:41:18.220Z,95689.94
2023-05-02T08:45:01.979Z,95686.13
2023-05-02T08:48:45.915Z,95699.47
2023-05-02T08:52:30.518Z,95695.19
2023-05-02T08:56:14.134Z,95697.22
2023-05-02T08:59:56.855Z,95702.44
2023-05-02T09:03:39.618Z,95695.50
2023-05-02T09:07:22.296Z,95703.97
2023-05-02T09:11:07.119Z,95703.56
2023-05-02T09:15:11.499Z,95701.91
2023-05-02T09:18:55.431Z,95703.88
2023-05-02T09:22:38.394Z,95705.84
2023-05-02T09:26:22.344Z,95711.53
2023-05-02T09:30:23.375Z,95713.16
2023-05-02T09:34:10.478Z,95720.88
2023-05-02T09:37:53.964Z,95715.13
2023-05-02T09:41:41.061Z,95726.47
2023-05-02T09:45:26.510Z,95720.28
2023-05-02T09:49:09.840Z,95720.91
2023-05-02T09:53:02.664Z,95724.53
2023-05-02T09:57:03.769Z,95725.13
2023-05-02T10:00:47.941Z,95724.16
2023-05-02T10:04:32.260Z,95725.44
2023-05-02T10:08:15.524Z,95728.13
2023-05-02T10:11:58.182Z,95724.91
2023-05-02T10:15:44.957Z,95723.28
2023-05-02T10:19:32.293Z,95725.81
2023-05-02T10:23:15.957Z,95717.44
2023-05-02T10:26:58.812Z,95720.03
2023-05-02T10:30:41.880Z,95720.03
2023-05-02T10:34:25.430Z,95712.53
2023-05-02T10:38:09.766Z,95705.91
2023-05-02T10:41:54.884Z,95708.25
2023-05-02T10:45:38.655Z,95706.50
2023-05-02T10:49:23.675Z,95718.38
2023-05-02T10:53:32.890Z,95709.00
2023-05-02T10:57:15.648Z,95707.84
2023-05-02T11:01:47.798Z,95712.50
2023-05-02T11:05:31.016Z,95710.28
2023-05-02T11:09:35.135Z,95724.47
2023-05-02T11:13:18.387Z,95728.44
2023-05-02T11:17:11.307Z,95720.69
2023-05-02T11:20:54.167Z,95731.94
2023-05-02T11:24:42.182Z,95731.94
2023-05-02T11:28:45.194Z,95734.84
2023-05-02T11:33:07.152Z,95740.75
2023-05-02T11:36:51.268Z,95737.34
2023-05-02T11:40:34.093Z,95734.56
2023-05-02T11:44:16.779Z,95735.44
2023-05-02T11:48:00.229Z,95735.44
2023-05-02T11:51:44.198Z,95746.78
2023-05-02T11:55:28.376Z,95746.81
2023-05-02T11:59:11.333Z,95739.09
2023-05-02T12:02:54.215Z,95736.63
2023-05-02T12:06:37.020Z,95742.09
2023-05-02T12:10:19.770Z,95739.00
2023-05-02T12:14:04.973Z,95741.75
2023-05-02T12:17:52.256Z,95731.78
2023-05-02T12:21:35.713Z,95735.31
2023-05-02T12:25:18.836Z,95740.69
2023-05-02T12:29:03.126Z,95737.56
2023-05-02T12:32:46.099Z,95728.69
2023-05-02T12:36:29.565Z,95741.59
2023-05-02T12:40:16.909Z,95733.69
2023-05-02T12:44:00.651Z,95730.59
2023-05-02T12:47:47.340Z,95732.38
2023-05-02T12:51:31.557Z,95747.53
2023-05-02T12:55:17.706Z,95742.09
2023-05-02T12:59:01.425Z,95738.34
2023-05-02T13:02:44.197Z,95742.63
2023-05-02T13:06:28.562Z,95745.06
2023-05-02T13:10:12.260Z,95757.69
2023-05-02T13:13:55.122Z,95754.59
2023-05-02T13:17:38.187Z,95744.16
2023-05-02T13:21:21.114Z,95744.28
2023-05-02T13:25:05.700Z,95751.56
2023-05-02T13:28:48.381Z,95750.97
2023-05-02T13:32:31.304Z,95746.06
2023-05-02T13:36:14.373Z,95735.81
2023-05-02T13:39:57.060Z,95743.91
2023-05-02T13:43:41.158Z,95749.63
2023-05-02T13:47:24.262Z,95746.72
2023-05-02T13:51:06.994Z,95749.72
2023-05-02T13:54:49.715Z,95748.19
2023-05-02T13:58:32.403Z,95751.38
2023-05-02T14:02:16.674Z,95753.72
2023-05-02T14:05:59.470Z,95751.75
2023-05-02T14:09:42.247Z,95754.75
2023-05-02T14:13:26.309Z,95762.13
2023-05-02T14:17:09.003Z,95766.97
2023-05-02T14:20:53.291Z,95765.50
2023-05-02T14:24:36.428Z,95760.72
2023-05-02T14:28:19.156Z,95768.00
2023-05-02T14:32:01.940Z,95774.59
2023-05-02T14:35:44.639Z,95767.22
2023-05-02T14:39:28.736Z,95767.50
2023-05-02T14:43:15.181Z,95775.00
2023-05-02T14:46:57.953Z,95772.56
2023-05-02T14:50:41.011Z,95765.94
2023-05-02T14:54:29.542Z,95770.03
2023-05-02T14:58:12.244Z,95779.09
2023-05-02T15:01:54.966Z,95778.84
2023-05-02T15:05:38.098Z,95784.88
2023-05-02T15:09:20.971Z,95776.38
2023-05-02T15:13:05.987Z,95778.81
2023-05-02T15:16:48.731Z,95781.25
2023-05-02T15:20:31.470Z,95770.34
2023-05-02T15:24:14.249Z,95763.81
2023-05-02T15:27:57.028Z,95760.25
2023-05-02T15:31:41.635Z,95768.06
2023-05-02T15:35:24.339Z,95768.59
2023-05-02T15:39:07.646Z,95767.31
2023-05-02T15:42:50.582Z,95763.06
2023-05-02T15:46:33.390Z,95772.66
2023-05-02T15:50:17.787Z,95772.31
2023-05-02T15:54:00.457Z,95773.56
2023-05-02T15:57:43.525Z,95772.44
2023-05-02T16:01:26.275Z,95784.63
2023-05-02T16:05:09.326Z,95770.72
2023-05-02T16:08:53.406Z,95767.63
2023-05-02T16:12:36.576Z,95783.03
2023-05-02T16:16:19.805Z,95784.22
2023-05-02T16:20:03.095Z,95778.88
2023-05-02T16:23:46.012Z,95789.06
2023-05-02T16:27:30.284Z,95808.03
2023-05-02T16:31:14.865Z,95824.41
2023-05-02T16:34:58.353Z,95841.94
2023-05-02T16:38:41.427Z,95846.25
2023-05-02T16:42:24.425Z,95855.47
2023-05-02T16:46:08.619Z,95862.03
2023-05-02T16:49:54.328Z,95869.16
2023-05-02T16:53:37.003Z,95890.06
2023-05-02T16:57:21.156Z,95893.06
2023-05-02T17:01:05.289Z,95901.81
2023-05-02T17:04:50.103Z,95899.66
2023-05-02T17:08:33.333Z,95905.97
2023-05-02T17:12:22.347Z,95912.25
2023-05-02T17:16:05.622Z,95914.78
2023-05-02T17:19:49.942Z,95914.53
2023-05-02T17:23:32.652Z,95911.66
2023-05-02T17:27:15.494Z,95917.41
2023-05-02T17:30:59.332Z,95907.28
2023-05-02T17:34:43.074Z,95905.66
2023-05-02T17:38:27.793Z,95901.56
2023-05-02T17:42:10.561Z,95891.63
2023-05-02T17:45:53.364Z,95900.25
2023-05-02T17:49:36.260Z,95892.09
2023-05-02T17:53:21.176Z,95898.75
2023-05-02T17:57:05.522Z,95897.31
2023-05-02T18:00:48.780Z,95900.94
2023-05-02T18:04:31.545Z,95891.41
2023-05-02T18:08:14.771Z,95895.69
2023-05-02T18:11:58.545Z,95899.75
2023-05-02T18:15:42.684Z,95895.47
2023-05-02T18:19:25.442Z,95897.13
2023-05-02T18:23:08.173Z,95908.06
2023-05-02T18:26:51.006Z,95910.59
2023-05-02T18:30:37.105Z,95924.19
2023-05-02T18:34:21.257Z,95923.06
2023-05-02T18:38:06.927Z,95927.28
2023-05-02T18:41:49.710Z,95937.28
2023-05-02T18:45:33.217Z,95929.94
2023-05-02T18:49:16.342Z,95935.13
2023-05-02T18:53:00.601Z,95934.69
2023-05-02T18:56:43.977Z,95938.75
2023-05-02T19:00:30.156Z,95942.75
2023-05-02T19:04:13.193Z,95945.63
2023-05-02T19:07:55.968Z,95957.03
2023-05-02T19:11:40.113Z,95949.44
2023-05-02T19:15:23.839Z,95965.59
2023-05-02T19:19:06.580Z,95963.03
2023-05-02T19:22:49.768Z,95963.03
2023-05-02T19:26:32.651Z,95975.19
2023-05-02T19:30:16.939Z,95976.28
2023-05-02T19:34:00.175Z,95971.47
2023-05-02T19:37:44.063Z,95977.56
2023-05-02T19:41:26.953Z,95983.06
2023-05-02T19:45:13.796Z,95982.34
2023-05-02T19:48:59.281Z,95995.13
2023-05-02T19:52:46.717Z,95987.94
2023-05-02T19:56:30.010Z,95984.69
2023-05-02T20:00:14.017Z,95982.06
2023-05-02T20:04:00.771Z,95988.13
2023-05-02T20:07:44.532Z,95992.94
2023-05-02T20:11:27.225Z,96001.09
2023-05-02T20:15:10.836Z,96000.75
2023-05-02T20:18:53.882Z,95996.47
2023-05-02T20:22:39.774Z,96006.72
2023-05-02T20:26:22.656Z,96004.72
2023-05-02T20:30:06.495Z,96016.16
2023-05-02T20:33:49.203Z,96008.28
2023-05-02T20:37:32.267Z,96007.91
2023-05-02T20:41:17.617Z,96007.78
2023-05-02T20:45:01.941Z,96008.03
2023-05-02T20:48:44.627Z,96004.44
2023-05-02T20:52:27.330Z,95995.38
2023-05-02T20:56:10.322Z,96000.56
2023-05-02T20:59:54.795Z,95992.34
2023-05-02T21:03:40.665Z,96001.31
2023-05-02T21:07:23.523Z,95999.84
2023-05-02T21:11:14.399Z,95999.09
2023-05-02T21:14:59.744Z,96002.00
2023-05-02T21:18:42.570Z,96005.66
2023-05-02T21:22:26.994Z,95993.94
2023-05-02T21:26:09.896Z,96005.09
2023-05-02T21:29:53.836Z,95995.56
2023-05-02T21:33:37.835Z,96001.81
2023-05-02T21:37:20.751Z,95998.66
2023-05-02T21:41:04.206Z,95997.38
2023-05-02T21:44:46.831Z,95999.56
2023-05-02T21:48:29.562Z,95996.75
2023-05-02T21:52:13.731Z,95994.75
2023-05-02T21:55:56.475Z,95995.13
2023-05-02T21:59:39.375Z,95992.88
2023-05-02T22:03:23.857Z,96003.47
2023-05-02T22:07:06.728Z,95999.31
2023-05-02T22:10:50.823Z,95996.78
2023-05-02T22:14:44.335Z,95992.63
2023-05-02T22:18:29.019Z,95993.09
2023-05-02T22:22:11.858Z,95995.53
2023-05-02T22:25:58.614Z,95989.88
2023-05-02T22:29:41.316Z,95993.88
2023-05-02T22:33:24.707Z,95996.50
2023-05-02T22:37:07.575Z,95992.44
2023-05-02T22:40:50.299Z,95995.69
2023-05-02T22:44:43.393Z,95999.41
2023-05-02T22:48:33.548Z,95992.88
2023-05-02T22:52:18.335Z,95997.31
2023-05-02T22:56:01.065Z,95999.69
2023-05-02T22:59:45.197Z,95998.31
2023-05-02T23:03:27.906Z,96003.41
2023-05-02T23:07:11.031Z,96004.56
2023-05-02T23:10:54.013Z,96008.63
2023-05-02T23:14:36.672Z,95995.34
2023-05-02T23:18:20.834Z,95992.72
2023-05-02T23:22:03.550Z,95993.72
2023-05-02T23:25:46.254Z,95995.34
2023-05-02T23:29:28.947Z,95990.81
2023-05-02T23:33:11.654Z,95992.25
2023-05-02T23:36:55.863Z,95988.75
2023-05-02T23:40:38.534Z,95980.88
2023-05-02T23:44:21.320Z,95980.16
2023-05-02T23:48:04.220Z,95980.81
2023-05-02T23:51:46.911Z,95983.72
2023-05-02T23:55:31.325Z,95977.66
2023-05-02T23:59:14.047Z,95984.72
